Kota Kinabalu, Malaysia
Current Conditions -  °F | °C
As of 1:30 PM on Saturday 20 Dec 2014 (Local Time) from WBKK Reporting Station
Broken Clouds Broken Clouds  
Wind Chill: 91°   Ceiling: 27000
Heat Index: 108°   Visibility: 6mi
Dew Point: 79°   Wind: 3mph
Humidity: 66%   Direction: 250°WSW
Pressure: 29.74"   Gusts: NA
Location:  5.97°N, 116.07°E
Report Text: WBKK 200530Z 25003KT 9999 FEW014 FEW016CB SCT140 BKN270 33/26 Q1007 NOSIG
Loading
Personal Weather Stations






























Interactive Weather Map New forecast layout! Learn more

10-Day Weather Forecast

Advertisements
Track Severe Weather on mobile